Terminal Aerodrome Forecast
Issued by NWS Goodland, KS

Home | Current Version | Previous Version | Text Only | Print | Product List | Glossary On
Versions: 1 2 3 4 5 6 7 8 9 10 11 12 13 14 15 16 17
000
FTUS43 KGLD 021907 AAA
TAFGLD
TAF AMD
KGLD 021907Z 0219/0318 35016G23KT P6SM SKC
     FM022300 03015G20KT P6SM SCT070
     FM030100 VRB06KT P6SM SCT070
     FM031300 VRB05KT P6SM VCTS BKN060CB
     FM031600 VRB05KT P6SM BKN050=

USA.gov is the U.S. government's official web portal to all federal, state and local government web resources and services.